sensor_id;sensor_type;location;lat;lon;timestamp;P1;durP1;ratioP1;P2;durP2;ratioP2
50585;SDS011;36542;51.700;8.846;2022-11-23T00:00:22;4.97;;;3.13;;
50585;SDS011;36542;51.700;8.846;2022-11-23T00:02:54;3.33;;;2.83;;
50585;SDS011;36542;51.700;8.846;2022-11-23T00:05:20;4.30;;;3.53;;
50585;SDS011;36542;51.700;8.846;2022-11-23T00:07:46;7.13;;;3.60;;
50585;SDS011;36542;51.700;8.846;2022-11-23T00:10:12;6.93;;;3.40;;
50585;SDS011;36542;51.700;8.846;2022-11-23T00:12:37;6.60;;;3.67;;
50585;SDS011;36542;51.700;8.846;2022-11-23T00:15:03;5.30;;;3.40;;
50585;SDS011;36542;51.700;8.846;2022-11-23T00:17:29;3.20;;;2.90;;
50585;SDS011;36542;51.700;8.846;2022-11-23T00:19:55;6.53;;;3.47;;
50585;SDS011;36542;51.700;8.846;2022-11-23T00:22:20;5.03;;;3.00;;
50585;SDS011;36542;51.700;8.846;2022-11-23T00:24:46;4.90;;;3.70;;
50585;SDS011;36542;51.700;8.846;2022-11-23T00:27:11;5.93;;;3.53;;
50585;SDS011;36542;51.700;8.846;2022-11-23T00:29:37;7.13;;;2.90;;
50585;SDS011;36542;51.700;8.846;2022-11-23T00:32:03;3.77;;;3.17;;
50585;SDS011;36542;51.700;8.846;2022-11-23T00:34:28;6.33;;;2.90;;
50585;SDS011;36542;51.700;8.846;2022-11-23T00:36:54;5.53;;;2.83;;
50585;SDS011;36542;51.700;8.846;2022-11-23T00:39:19;5.33;;;3.00;;
50585;SDS011;36542;51.700;8.846;2022-11-23T00:41:45;4.90;;;3.10;;
50585;SDS011;36542;51.700;8.846;2022-11-23T00:44:10;6.93;;;3.20;;
50585;SDS011;36542;51.700;8.846;2022-11-23T00:46:36;7.63;;;3.00;;
50585;SDS011;36542;51.700;8.846;2022-11-23T00:49:01;5.87;;;3.13;;
50585;SDS011;36542;51.700;8.846;2022-11-23T00:51:29;5.67;;;3.47;;
50585;SDS011;36542;51.700;8.846;2022-11-23T00:53:56;5.73;;;3.13;;
50585;SDS011;36542;51.700;8.846;2022-11-23T00:56:23;6.23;;;2.97;;
50585;SDS011;36542;51.700;8.846;2022-11-23T00:58:49;4.80;;;2.97;;
50585;SDS011;36542;51.700;8.846;2022-11-23T01:01:16;6.00;;;3.73;;
50585;SDS011;36542;51.700;8.846;2022-11-23T01:03:44;8.67;;;3.20;;
50585;SDS011;36542;51.700;8.846;2022-11-23T01:06:13;5.00;;;3.33;;
50585;SDS011;36542;51.700;8.846;2022-11-23T01:08:41;5.40;;;3.43;;
50585;SDS011;36542;51.700;8.846;2022-11-23T01:11:08;5.87;;;3.40;;
50585;SDS011;36542;51.700;8.846;2022-11-23T01:13:36;3.97;;;2.90;;
50585;SDS011;36542;51.700;8.846;2022-11-23T01:16:04;4.43;;;2.70;;
50585;SDS011;36542;51.700;8.846;2022-11-23T01:19:00;5.23;;;3.00;;
50585;SDS011;36542;51.700;8.846;2022-11-23T01:21:28;3.80;;;2.83;;
50585;SDS011;36542;51.700;8.846;2022-11-23T01:23:54;5.10;;;2.83;;
50585;SDS011;36542;51.700;8.846;2022-11-23T01:26:20;5.60;;;3.17;;
50585;SDS011;36542;51.700;8.846;2022-11-23T01:28:46;5.43;;;2.90;;
50585;SDS011;36542;51.700;8.846;2022-11-23T01:31:13;4.97;;;2.63;;
50585;SDS011;36542;51.700;8.846;2022-11-23T01:33:40;4.97;;;2.90;;
50585;SDS011;36542;51.700;8.846;2022-11-23T01:36:16;4.23;;;3.13;;
50585;SDS011;36542;51.700;8.846;2022-11-23T01:38:44;5.17;;;3.10;;
50585;SDS011;36542;51.700;8.846;2022-11-23T01:41:14;5.07;;;2.80;;
50585;SDS011;36542;51.700;8.846;2022-11-23T01:43:41;9.37;;;3.80;;
50585;SDS011;36542;51.700;8.846;2022-11-23T01:46:07;6.37;;;2.80;;
50585;SDS011;36542;51.700;8.846;2022-11-23T01:51:05;6.37;;;3.80;;
50585;SDS011;36542;51.700;8.846;2022-11-23T01:53:32;7.10;;;3.27;;
50585;SDS011;36542;51.700;8.846;2022-11-23T01:55:59;5.07;;;2.77;;
50585;SDS011;36542;51.700;8.846;2022-11-23T01:58:28;4.23;;;2.90;;
50585;SDS011;36542;51.700;8.846;2022-11-23T02:00:57;4.40;;;3.23;;
50585;SDS011;36542;51.700;8.846;2022-11-23T02:03:23;6.03;;;3.77;;
50585;SDS011;36542;51.700;8.846;2022-11-23T02:05:50;3.13;;;2.33;;
50585;SDS011;36542;51.700;8.846;2022-11-23T02:08:23;5.37;;;2.37;;
50585;SDS011;36542;51.700;8.846;2022-11-23T02:10:50;5.27;;;2.23;;
50585;SDS011;36542;51.700;8.846;2022-11-23T02:13:16;4.77;;;2.50;;
50585;SDS011;36542;51.700;8.846;2022-11-23T02:15:42;5.03;;;2.03;;
50585;SDS011;36542;51.700;8.846;2022-11-23T02:18:18;3.20;;;2.40;;
50585;SDS011;36542;51.700;8.846;2022-11-23T02:20:47;2.93;;;2.50;;
50585;SDS011;36542;51.700;8.846;2022-11-23T02:25:53;3.70;;;3.13;;
50585;SDS011;36542;51.700;8.846;2022-11-23T02:28:35;6.60;;;3.37;;
50585;SDS011;36542;51.700;8.846;2022-11-23T02:31:10;4.87;;;3.30;;
50585;SDS011;36542;51.700;8.846;2022-11-23T02:33:36;6.53;;;3.60;;
50585;SDS011;36542;51.700;8.846;2022-11-23T02:36:20;6.50;;;3.40;;
50585;SDS011;36542;51.700;8.846;2022-11-23T02:39:25;5.23;;;3.63;;
50585;SDS011;36542;51.700;8.846;2022-11-23T02:41:58;11.00;;;3.57;;
50585;SDS011;36542;51.700;8.846;2022-11-23T02:47:08;6.40;;;4.03;;
50585;SDS011;36542;51.700;8.846;2022-11-23T02:49:34;8.20;;;4.30;;
50585;SDS011;36542;51.700;8.846;2022-11-23T02:52:00;5.13;;;3.80;;
50585;SDS011;36542;51.700;8.846;2022-11-23T02:54:27;8.23;;;3.90;;
50585;SDS011;36542;51.700;8.846;2022-11-23T02:56:52;4.57;;;4.07;;
50585;SDS011;36542;51.700;8.846;2022-11-23T02:59:18;6.37;;;4.33;;
50585;SDS011;36542;51.700;8.846;2022-11-23T03:01:44;7.43;;;4.20;;
50585;SDS011;36542;51.700;8.846;2022-11-23T03:04:10;9.60;;;4.30;;
50585;SDS011;36542;51.700;8.846;2022-11-23T03:06:35;6.87;;;3.87;;
50585;SDS011;36542;51.700;8.846;2022-11-23T03:09:01;6.37;;;4.30;;
50585;SDS011;36542;51.700;8.846;2022-11-23T03:11:27;8.03;;;4.00;;
50585;SDS011;36542;51.700;8.846;2022-11-23T03:13:52;6.47;;;4.20;;
50585;SDS011;36542;51.700;8.846;2022-11-23T03:16:18;5.67;;;3.87;;
50585;SDS011;36542;51.700;8.846;2022-11-23T03:18:44;6.00;;;3.77;;
50585;SDS011;36542;51.700;8.846;2022-11-23T03:21:09;6.87;;;5.10;;
50585;SDS011;36542;51.700;8.846;2022-11-23T03:23:35;9.50;;;4.80;;
50585;SDS011;36542;51.700;8.846;2022-11-23T03:26:01;7.20;;;4.30;;
50585;SDS011;36542;51.700;8.846;2022-11-23T03:28:27;6.10;;;4.50;;
50585;SDS011;36542;51.700;8.846;2022-11-23T03:30:53;8.50;;;4.33;;
50585;SDS011;36542;51.700;8.846;2022-11-23T03:33:19;8.47;;;5.00;;
50585;SDS011;36542;51.700;8.846;2022-11-23T03:35:44;5.87;;;4.60;;
50585;SDS011;36542;51.700;8.846;2022-11-23T03:38:10;6.90;;;5.20;;
50585;SDS011;36542;51.700;8.846;2022-11-23T03:40:36;7.30;;;5.30;;
50585;SDS011;36542;51.700;8.846;2022-11-23T03:43:02;8.77;;;5.20;;
50585;SDS011;36542;51.700;8.846;2022-11-23T03:45:28;5.77;;;4.93;;
50585;SDS011;36542;51.700;8.846;2022-11-23T03:47:53;7.50;;;5.13;;
50585;SDS011;36542;51.700;8.846;2022-11-23T03:50:19;6.90;;;4.43;;
50585;SDS011;36542;51.700;8.846;2022-11-23T03:52:44;8.87;;;4.60;;
50585;SDS011;36542;51.700;8.846;2022-11-23T03:55:12;8.20;;;5.33;;
50585;SDS011;36542;51.700;8.846;2022-11-23T03:57:38;6.03;;;4.83;;
50585;SDS011;36542;51.700;8.846;2022-11-23T04:00:03;6.07;;;4.70;;
50585;SDS011;36542;51.700;8.846;2022-11-23T04:02:29;8.80;;;5.37;;
50585;SDS011;36542;51.700;8.846;2022-11-23T04:04:55;7.57;;;5.83;;
50585;SDS011;36542;51.700;8.846;2022-11-23T04:07:20;8.53;;;5.27;;
50585;SDS011;36542;51.700;8.846;2022-11-23T04:09:46;7.87;;;5.53;;
50585;SDS011;36542;51.700;8.846;2022-11-23T04:12:11;6.10;;;4.60;;
50585;SDS011;36542;51.700;8.846;2022-11-23T04:14:37;6.90;;;5.10;;
50585;SDS011;36542;51.700;8.846;2022-11-23T04:17:03;6.77;;;4.73;;
50585;SDS011;36542;51.700;8.846;2022-11-23T04:19:29;8.57;;;5.53;;
50585;SDS011;36542;51.700;8.846;2022-11-23T04:21:54;7.17;;;5.07;;
50585;SDS011;36542;51.700;8.846;2022-11-23T04:24:20;5.73;;;4.80;;
50585;SDS011;36542;51.700;8.846;2022-11-23T04:26:45;7.53;;;4.93;;
50585;SDS011;36542;51.700;8.846;2022-11-23T04:29:11;6.30;;;4.03;;
50585;SDS011;36542;51.700;8.846;2022-11-23T04:31:36;6.33;;;4.13;;
50585;SDS011;36542;51.700;8.846;2022-11-23T04:34:02;6.30;;;4.73;;
50585;SDS011;36542;51.700;8.846;2022-11-23T04:36:28;4.30;;;3.77;;
50585;SDS011;36542;51.700;8.846;2022-11-23T04:38:53;6.80;;;4.10;;
50585;SDS011;36542;51.700;8.846;2022-11-23T04:41:19;5.93;;;4.47;;
50585;SDS011;36542;51.700;8.846;2022-11-23T04:43:48;5.47;;;4.07;;
50585;SDS011;36542;51.700;8.846;2022-11-23T04:46:14;6.70;;;5.33;;
50585;SDS011;36542;51.700;8.846;2022-11-23T04:48:39;7.50;;;4.67;;
50585;SDS011;36542;51.700;8.846;2022-11-23T04:51:05;9.57;;;5.17;;
50585;SDS011;36542;51.700;8.846;2022-11-23T04:53:31;7.20;;;5.07;;
50585;SDS011;36542;51.700;8.846;2022-11-23T04:55:56;5.03;;;3.93;;
50585;SDS011;36542;51.700;8.846;2022-11-23T04:58:22;7.60;;;4.00;;
50585;SDS011;36542;51.700;8.846;2022-11-23T05:00:48;5.67;;;4.30;;
50585;SDS011;36542;51.700;8.846;2022-11-23T05:03:13;5.07;;;3.90;;
50585;SDS011;36542;51.700;8.846;2022-11-23T05:05:39;7.10;;;3.77;;
50585;SDS011;36542;51.700;8.846;2022-11-23T05:08:05;4.20;;;3.70;;
50585;SDS011;36542;51.700;8.846;2022-11-23T05:10:31;4.90;;;3.67;;
50585;SDS011;36542;51.700;8.846;2022-11-23T05:12:57;5.30;;;4.00;;
50585;SDS011;36542;51.700;8.846;2022-11-23T05:15:22;6.97;;;4.10;;
50585;SDS011;36542;51.700;8.846;2022-11-23T05:17:48;5.27;;;4.23;;
50585;SDS011;36542;51.700;8.846;2022-11-23T05:20:13;5.53;;;4.80;;
50585;SDS011;36542;51.700;8.846;2022-11-23T05:22:39;5.40;;;4.37;;
50585;SDS011;36542;51.700;8.846;2022-11-23T05:25:05;8.23;;;5.20;;
50585;SDS011;36542;51.700;8.846;2022-11-23T05:27:31;8.13;;;4.77;;
50585;SDS011;36542;51.700;8.846;2022-11-23T05:29:57;8.13;;;5.50;;
50585;SDS011;36542;51.700;8.846;2022-11-23T05:32:22;6.63;;;4.87;;
50585;SDS011;36542;51.700;8.846;2022-11-23T05:34:48;6.60;;;5.30;;
50585;SDS011;36542;51.700;8.846;2022-11-23T05:37:14;8.50;;;5.70;;
50585;SDS011;36542;51.700;8.846;2022-11-23T05:39:39;6.87;;;5.23;;
50585;SDS011;36542;51.700;8.846;2022-11-23T05:42:05;11.80;;;6.00;;
50585;SDS011;36542;51.700;8.846;2022-11-23T05:44:31;8.53;;;6.20;;
50585;SDS011;36542;51.700;8.846;2022-11-23T05:46:56;7.53;;;6.20;;
50585;SDS011;36542;51.700;8.846;2022-11-23T05:49:22;7.97;;;5.40;;
50585;SDS011;36542;51.700;8.846;2022-11-23T05:51:47;6.37;;;5.33;;
50585;SDS011;36542;51.700;8.846;2022-11-23T05:54:13;8.10;;;5.57;;
50585;SDS011;36542;51.700;8.846;2022-11-23T05:56:38;8.17;;;5.83;;
50585;SDS011;36542;51.700;8.846;2022-11-23T05:59:04;10.10;;;6.00;;
50585;SDS011;36542;51.700;8.846;2022-11-23T06:01:30;7.83;;;5.83;;
50585;SDS011;36542;51.700;8.846;2022-11-23T06:03:57;12.97;;;6.40;;
50585;SDS011;36542;51.700;8.846;2022-11-23T06:06:22;9.50;;;5.40;;
50585;SDS011;36542;51.700;8.846;2022-11-23T06:08:48;7.70;;;5.90;;
50585;SDS011;36542;51.700;8.846;2022-11-23T06:11:13;7.73;;;6.27;;
50585;SDS011;36542;51.700;8.846;2022-11-23T06:13:39;9.37;;;5.97;;
50585;SDS011;36542;51.700;8.846;2022-11-23T06:16:05;7.33;;;6.10;;
50585;SDS011;36542;51.700;8.846;2022-11-23T06:18:30;7.13;;;5.43;;
50585;SDS011;36542;51.700;8.846;2022-11-23T06:20:59;11.37;;;6.07;;
50585;SDS011;36542;51.700;8.846;2022-11-23T06:23:25;13.37;;;6.20;;
50585;SDS011;36542;51.700;8.846;2022-11-23T06:25:51;10.33;;;6.63;;
50585;SDS011;36542;51.700;8.846;2022-11-23T06:28:17;9.27;;;6.03;;
50585;SDS011;36542;51.700;8.846;2022-11-23T06:30:42;11.33;;;5.30;;
50585;SDS011;36542;51.700;8.846;2022-11-23T06:33:08;8.00;;;5.53;;
50585;SDS011;36542;51.700;8.846;2022-11-23T06:35:33;8.17;;;5.70;;
50585;SDS011;36542;51.700;8.846;2022-11-23T06:37:59;10.10;;;6.33;;
50585;SDS011;36542;51.700;8.846;2022-11-23T06:40:25;8.47;;;6.07;;
50585;SDS011;36542;51.700;8.846;2022-11-23T06:42:51;11.90;;;6.20;;
50585;SDS011;36542;51.700;8.846;2022-11-23T06:45:22;9.27;;;5.77;;
50585;SDS011;36542;51.700;8.846;2022-11-23T06:47:47;8.87;;;6.13;;
50585;SDS011;36542;51.700;8.846;2022-11-23T06:50:13;10.93;;;6.10;;
50585;SDS011;36542;51.700;8.846;2022-11-23T06:52:39;11.03;;;6.13;;
50585;SDS011;36542;51.700;8.846;2022-11-23T06:55:05;9.73;;;5.83;;
50585;SDS011;36542;51.700;8.846;2022-11-23T06:57:30;12.43;;;6.50;;
50585;SDS011;36542;51.700;8.846;2022-11-23T06:59:56;11.37;;;4.73;;
50585;SDS011;36542;51.700;8.846;2022-11-23T07:02:22;13.00;;;5.73;;
50585;SDS011;36542;51.700;8.846;2022-11-23T07:04:49;8.83;;;5.20;;
50585;SDS011;36542;51.700;8.846;2022-11-23T07:07:16;9.57;;;5.40;;
50585;SDS011;36542;51.700;8.846;2022-11-23T07:09:42;7.77;;;5.20;;
50585;SDS011;36542;51.700;8.846;2022-11-23T07:12:07;12.80;;;5.67;;
50585;SDS011;36542;51.700;8.846;2022-11-23T07:14:33;9.23;;;5.70;;
50585;SDS011;36542;51.700;8.846;2022-11-23T07:16:58;13.13;;;5.07;;
50585;SDS011;36542;51.700;8.846;2022-11-23T07:19:24;6.57;;;4.80;;
50585;SDS011;36542;51.700;8.846;2022-11-23T07:21:49;7.13;;;4.87;;
50585;SDS011;36542;51.700;8.846;2022-11-23T07:24:15;7.60;;;4.53;;
50585;SDS011;36542;51.700;8.846;2022-11-23T07:26:40;8.87;;;5.03;;
50585;SDS011;36542;51.700;8.846;2022-11-23T07:29:06;9.70;;;4.70;;
50585;SDS011;36542;51.700;8.846;2022-11-23T07:31:31;7.93;;;5.23;;
50585;SDS011;36542;51.700;8.846;2022-11-23T07:33:57;8.03;;;5.20;;
50585;SDS011;36542;51.700;8.846;2022-11-23T07:36:22;7.80;;;4.40;;
50585;SDS011;36542;51.700;8.846;2022-11-23T07:38:48;7.13;;;4.37;;
50585;SDS011;36542;51.700;8.846;2022-11-23T07:41:14;6.87;;;4.33;;
50585;SDS011;36542;51.700;8.846;2022-11-23T07:43:39;9.00;;;5.33;;
50585;SDS011;36542;51.700;8.846;2022-11-23T07:46:05;7.97;;;4.70;;
50585;SDS011;36542;51.700;8.846;2022-11-23T07:48:30;9.57;;;4.93;;
50585;SDS011;36542;51.700;8.846;2022-11-23T07:50:56;6.73;;;4.07;;
50585;SDS011;36542;51.700;8.846;2022-11-23T07:53:21;10.30;;;6.83;;
50585;SDS011;36542;51.700;8.846;2022-11-23T07:55:47;8.30;;;5.13;;
50585;SDS011;36542;51.700;8.846;2022-11-23T07:58:13;9.70;;;6.77;;
50585;SDS011;36542;51.700;8.846;2022-11-23T08:00:38;8.87;;;5.60;;
50585;SDS011;36542;51.700;8.846;2022-11-23T08:03:04;7.57;;;4.67;;
50585;SDS011;36542;51.700;8.846;2022-11-23T08:05:30;8.37;;;4.43;;
50585;SDS011;36542;51.700;8.846;2022-11-23T08:07:57;6.77;;;4.40;;
50585;SDS011;36542;51.700;8.846;2022-11-23T08:10:24;10.37;;;3.50;;
50585;SDS011;36542;51.700;8.846;2022-11-23T08:12:55;9.90;;;3.87;;
50585;SDS011;36542;51.700;8.846;2022-11-23T08:15:25;6.93;;;3.63;;
50585;SDS011;36542;51.700;8.846;2022-11-23T08:18:01;7.23;;;2.80;;
50585;SDS011;36542;51.700;8.846;2022-11-23T08:20:27;6.53;;;2.97;;
50585;SDS011;36542;51.700;8.846;2022-11-23T08:22:53;6.50;;;2.67;;
50585;SDS011;36542;51.700;8.846;2022-11-23T08:25:23;4.43;;;2.83;;
50585;SDS011;36542;51.700;8.846;2022-11-23T08:27:57;3.93;;;3.23;;
50585;SDS011;36542;51.700;8.846;2022-11-23T08:30:24;4.67;;;2.87;;
50585;SDS011;36542;51.700;8.846;2022-11-23T08:32:50;6.13;;;3.80;;
50585;SDS011;36542;51.700;8.846;2022-11-23T08:35:16;8.83;;;3.67;;
50585;SDS011;36542;51.700;8.846;2022-11-23T08:37:41;6.63;;;2.90;;
50585;SDS011;36542;51.700;8.846;2022-11-23T08:40:07;4.70;;;2.67;;
50585;SDS011;36542;51.700;8.846;2022-11-23T08:42:33;6.03;;;3.13;;
50585;SDS011;36542;51.700;8.846;2022-11-23T08:44:58;5.00;;;3.00;;
50585;SDS011;36542;51.700;8.846;2022-11-23T08:47:24;5.97;;;2.80;;
50585;SDS011;36542;51.700;8.846;2022-11-23T08:49:50;7.03;;;3.40;;
50585;SDS011;36542;51.700;8.846;2022-11-23T08:52:16;7.17;;;3.00;;
50585;SDS011;36542;51.700;8.846;2022-11-23T08:54:41;4.57;;;2.70;;
50585;SDS011;36542;51.700;8.846;2022-11-23T08:57:07;8.77;;;3.10;;
50585;SDS011;36542;51.700;8.846;2022-11-23T08:59:32;7.27;;;3.10;;
50585;SDS011;36542;51.700;8.846;2022-11-23T09:01:58;7.03;;;3.07;;
50585;SDS011;36542;51.700;8.846;2022-11-23T09:04:23;4.87;;;2.60;;
50585;SDS011;36542;51.700;8.846;2022-11-23T09:06:51;5.70;;;2.90;;
50585;SDS011;36542;51.700;8.846;2022-11-23T09:09:17;5.27;;;2.73;;
50585;SDS011;36542;51.700;8.846;2022-11-23T09:11:43;3.37;;;2.60;;
50585;SDS011;36542;51.700;8.846;2022-11-23T09:14:08;4.03;;;2.30;;
50585;SDS011;36542;51.700;8.846;2022-11-23T09:16:34;4.93;;;2.40;;
50585;SDS011;36542;51.700;8.846;2022-11-23T09:18:59;6.53;;;2.70;;
50585;SDS011;36542;51.700;8.846;2022-11-23T09:21:25;5.33;;;2.23;;
50585;SDS011;36542;51.700;8.846;2022-11-23T09:23:54;2.73;;;1.83;;
50585;SDS011;36542;51.700;8.846;2022-11-23T09:26:20;6.90;;;2.33;;
50585;SDS011;36542;51.700;8.846;2022-11-23T09:28:46;5.63;;;2.40;;
50585;SDS011;36542;51.700;8.846;2022-11-23T09:31:12;5.87;;;2.80;;
50585;SDS011;36542;51.700;8.846;2022-11-23T09:33:37;2.87;;;2.10;;
50585;SDS011;36542;51.700;8.846;2022-11-23T09:36:03;7.87;;;3.00;;
50585;SDS011;36542;51.700;8.846;2022-11-23T09:38:29;5.50;;;2.67;;
50585;SDS011;36542;51.700;8.846;2022-11-23T09:41:08;3.07;;;2.20;;
50585;SDS011;36542;51.700;8.846;2022-11-23T09:49:31;3.73;;;1.53;;
50585;SDS011;36542;51.700;8.846;2022-11-23T09:52:16;2.40;;;1.90;;
50585;SDS011;36542;51.700;8.846;2022-11-23T09:54:44;3.30;;;1.70;;
50585;SDS011;36542;51.700;8.846;2022-11-23T09:57:13;3.53;;;1.73;;
50585;SDS011;36542;51.700;8.846;2022-11-23T09:59:53;4.33;;;2.00;;
50585;SDS011;36542;51.700;8.846;2022-11-23T10:02:26;6.27;;;2.20;;
50585;SDS011;36542;51.700;8.846;2022-11-23T10:04:56;2.73;;;1.80;;
50585;SDS011;36542;51.700;8.846;2022-11-23T10:17:34;7.07;;;2.40;;
50585;SDS011;36542;51.700;8.846;2022-11-23T10:20:16;6.57;;;2.40;;
50585;SDS011;36542;51.700;8.846;2022-11-23T10:22:48;5.73;;;2.03;;
50585;SDS011;36542;51.700;8.846;2022-11-23T10:25:21;4.80;;;2.10;;
50585;SDS011;36542;51.700;8.846;2022-11-23T10:27:49;4.07;;;2.20;;
50585;SDS011;36542;51.700;8.846;2022-11-23T10:30:18;2.57;;;2.13;;
50585;SDS011;36542;51.700;8.846;2022-11-23T10:35:31;4.97;;;2.00;;
50585;SDS011;36542;51.700;8.846;2022-11-23T10:41:03;3.57;;;2.20;;
50585;SDS011;36542;51.700;8.846;2022-11-23T10:43:37;6.10;;;1.70;;
50585;SDS011;36542;51.700;8.846;2022-11-23T10:49:30;4.13;;;1.83;;
50585;SDS011;36542;51.700;8.846;2022-11-23T10:51:58;6.67;;;1.40;;
50585;SDS011;36542;51.700;8.846;2022-11-23T10:54:54;4.17;;;1.80;;
50585;SDS011;36542;51.700;8.846;2022-11-23T10:57:40;4.87;;;1.90;;
50585;SDS011;36542;51.700;8.846;2022-11-23T11:02:44;4.27;;;1.50;;
50585;SDS011;36542;51.700;8.846;2022-11-23T11:07:51;4.67;;;2.00;;
50585;SDS011;36542;51.700;8.846;2022-11-23T11:10:37;7.23;;;2.17;;
50585;SDS011;36542;51.700;8.846;2022-11-23T11:13:45;8.00;;;2.23;;
50585;SDS011;36542;51.700;8.846;2022-11-23T11:16:17;6.03;;;2.10;;
50585;SDS011;36542;51.700;8.846;2022-11-23T11:18:49;5.67;;;2.40;;
50585;SDS011;36542;51.700;8.846;2022-11-23T11:21:19;5.87;;;2.27;;
50585;SDS011;36542;51.700;8.846;2022-11-23T11:23:50;5.17;;;2.50;;
50585;SDS011;36542;51.700;8.846;2022-11-23T11:26:27;6.43;;;2.70;;
50585;SDS011;36542;51.700;8.846;2022-11-23T11:28:57;6.57;;;2.30;;
50585;SDS011;36542;51.700;8.846;2022-11-23T11:36:54;6.93;;;2.40;;
50585;SDS011;36542;51.700;8.846;2022-11-23T11:39:27;13.77;;;3.00;;
50585;SDS011;36542;51.700;8.846;2022-11-23T11:42:12;6.60;;;2.90;;
50585;SDS011;36542;51.700;8.846;2022-11-23T11:44:45;5.93;;;2.50;;
50585;SDS011;36542;51.700;8.846;2022-11-23T11:47:26;5.47;;;2.47;;
50585;SDS011;36542;51.700;8.846;2022-11-23T11:49:56;9.27;;;3.17;;
50585;SDS011;36542;51.700;8.846;2022-11-23T11:52:29;8.63;;;3.13;;
50585;SDS011;36542;51.700;8.846;2022-11-23T11:55:09;7.67;;;2.80;;
50585;SDS011;36542;51.700;8.846;2022-11-23T11:57:43;6.43;;;2.90;;
50585;SDS011;36542;51.700;8.846;2022-11-23T12:00:16;7.13;;;2.70;;
50585;SDS011;36542;51.700;8.846;2022-11-23T12:05:31;7.67;;;2.60;;
50585;SDS011;36542;51.700;8.846;2022-11-23T12:08:12;7.20;;;2.67;;
50585;SDS011;36542;51.700;8.846;2022-11-23T12:13:21;7.67;;;2.30;;
50585;SDS011;36542;51.700;8.846;2022-11-23T12:15:59;7.77;;;2.80;;
50585;SDS011;36542;51.700;8.846;2022-11-23T12:21:15;8.67;;;2.50;;
50585;SDS011;36542;51.700;8.846;2022-11-23T12:23:51;8.67;;;3.10;;
50585;SDS011;36542;51.700;8.846;2022-11-23T12:26:30;10.57;;;3.27;;
50585;SDS011;36542;51.700;8.846;2022-11-23T12:31:45;11.00;;;3.20;;
50585;SDS011;36542;51.700;8.846;2022-11-23T12:43:05;10.20;;;3.00;;
50585;SDS011;36542;51.700;8.846;2022-11-23T12:45:49;6.97;;;2.63;;
50585;SDS011;36542;51.700;8.846;2022-11-23T12:48:39;9.50;;;3.40;;
50585;SDS011;36542;51.700;8.846;2022-11-23T12:51:35;7.37;;;2.47;;
50585;SDS011;36542;51.700;8.846;2022-11-23T12:59:14;6.47;;;2.90;;
50585;SDS011;36542;51.700;8.846;2022-11-23T13:01:41;8.00;;;3.17;;
50585;SDS011;36542;51.700;8.846;2022-11-23T13:04:17;5.17;;;2.50;;
50585;SDS011;36542;51.700;8.846;2022-11-23T13:12:53;6.50;;;2.87;;
50585;SDS011;36542;51.700;8.846;2022-11-23T13:15:54;6.73;;;3.83;;
50585;SDS011;36542;51.700;8.846;2022-11-23T13:18:42;10.33;;;3.20;;
50585;SDS011;36542;51.700;8.846;2022-11-23T13:21:41;6.67;;;3.00;;
50585;SDS011;36542;51.700;8.846;2022-11-23T13:24:24;9.13;;;3.33;;
50585;SDS011;36542;51.700;8.846;2022-11-23T13:34:59;7.83;;;3.10;;
50585;SDS011;36542;51.700;8.846;2022-11-23T13:37:24;10.00;;;2.90;;
50585;SDS011;36542;51.700;8.846;2022-11-23T13:42:20;9.23;;;3.43;;
50585;SDS011;36542;51.700;8.846;2022-11-23T13:44:45;9.27;;;4.23;;
50585;SDS011;36542;51.700;8.846;2022-11-23T13:49:48;5.57;;;2.30;;
50585;SDS011;36542;51.700;8.846;2022-11-23T13:57:43;8.17;;;2.97;;
50585;SDS011;36542;51.700;8.846;2022-11-23T14:09:20;8.60;;;2.97;;
50585;SDS011;36542;51.700;8.846;2022-11-23T14:12:07;9.97;;;3.20;;
50585;SDS011;36542;51.700;8.846;2022-11-23T14:14:51;6.43;;;2.60;;
50585;SDS011;36542;51.700;8.846;2022-11-23T14:20:48;10.17;;;3.73;;
50585;SDS011;36542;51.700;8.846;2022-11-23T14:31:45;6.77;;;3.93;;
50585;SDS011;36542;51.700;8.846;2022-11-23T14:34:35;8.37;;;3.27;;
50585;SDS011;36542;51.700;8.846;2022-11-23T14:40:24;7.13;;;2.80;;
50585;SDS011;36542;51.700;8.846;2022-11-23T14:42:53;7.87;;;3.33;;
50585;SDS011;36542;51.700;8.846;2022-11-23T14:45:21;13.50;;;5.93;;
50585;SDS011;36542;51.700;8.846;2022-11-23T14:47:51;7.20;;;3.33;;
50585;SDS011;36542;51.700;8.846;2022-11-23T14:50:20;12.63;;;3.97;;
50585;SDS011;36542;51.700;8.846;2022-11-23T14:52:49;10.77;;;3.07;;
50585;SDS011;36542;51.700;8.846;2022-11-23T14:55:18;10.37;;;3.30;;
50585;SDS011;36542;51.700;8.846;2022-11-23T14:57:46;10.93;;;3.17;;
50585;SDS011;36542;51.700;8.846;2022-11-23T15:00:36;10.20;;;2.70;;
50585;SDS011;36542;51.700;8.846;2022-11-23T15:03:01;6.17;;;3.00;;
50585;SDS011;36542;51.700;8.846;2022-11-23T15:05:39;5.30;;;3.13;;
50585;SDS011;36542;51.700;8.846;2022-11-23T15:11:04;13.03;;;6.67;;
50585;SDS011;36542;51.700;8.846;2022-11-23T15:13:45;6.60;;;3.47;;
50585;SDS011;36542;51.700;8.846;2022-11-23T15:16:13;7.90;;;3.63;;
50585;SDS011;36542;51.700;8.846;2022-11-23T15:18:40;8.43;;;2.93;;
50585;SDS011;36542;51.700;8.846;2022-11-23T15:23:41;10.20;;;3.53;;
50585;SDS011;36542;51.700;8.846;2022-11-23T15:26:13;14.00;;;7.57;;
50585;SDS011;36542;51.700;8.846;2022-11-23T15:28:40;10.27;;;4.00;;
50585;SDS011;36542;51.700;8.846;2022-11-23T15:34:01;9.27;;;2.57;;
50585;SDS011;36542;51.700;8.846;2022-11-23T15:36:30;9.53;;;2.60;;
50585;SDS011;36542;51.700;8.846;2022-11-23T15:38:58;7.47;;;5.13;;
50585;SDS011;36542;51.700;8.846;2022-11-23T15:41:25;10.77;;;3.33;;
50585;SDS011;36542;51.700;8.846;2022-11-23T15:43:57;7.87;;;2.80;;
50585;SDS011;36542;51.700;8.846;2022-11-23T15:46:24;8.17;;;3.43;;
50585;SDS011;36542;51.700;8.846;2022-11-23T15:48:53;6.43;;;2.20;;
50585;SDS011;36542;51.700;8.846;2022-11-23T15:51:33;7.17;;;2.40;;
50585;SDS011;36542;51.700;8.846;2022-11-23T15:54:03;7.07;;;2.40;;
50585;SDS011;36542;51.700;8.846;2022-11-23T15:56:29;6.17;;;2.00;;
50585;SDS011;36542;51.700;8.846;2022-11-23T15:58:56;10.67;;;2.97;;
50585;SDS011;36542;51.700;8.846;2022-11-23T16:01:24;6.93;;;2.70;;
50585;SDS011;36542;51.700;8.846;2022-11-23T16:03:50;8.70;;;2.70;;
50585;SDS011;36542;51.700;8.846;2022-11-23T16:08:59;9.27;;;4.20;;
50585;SDS011;36542;51.700;8.846;2022-11-23T16:14:10;6.67;;;3.40;;
50585;SDS011;36542;51.700;8.846;2022-11-23T16:16:36;8.43;;;5.47;;
50585;SDS011;36542;51.700;8.846;2022-11-23T16:19:02;11.63;;;6.13;;
50585;SDS011;36542;51.700;8.846;2022-11-23T16:21:43;12.00;;;4.67;;
50585;SDS011;36542;51.700;8.846;2022-11-23T16:24:13;9.93;;;5.60;;
50585;SDS011;36542;51.700;8.846;2022-11-23T16:26:43;15.43;;;7.43;;
50585;SDS011;36542;51.700;8.846;2022-11-23T16:29:42;3.70;;;2.43;;
50585;SDS011;36542;51.700;8.846;2022-11-23T16:32:01;8.87;;;3.17;;
50585;SDS011;36542;51.700;8.846;2022-11-23T16:34:30;11.67;;;7.47;;
50585;SDS011;36542;51.700;8.846;2022-11-23T16:36:56;14.70;;;4.60;;
50585;SDS011;36542;51.700;8.846;2022-11-23T16:39:23;12.07;;;4.30;;
50585;SDS011;36542;51.700;8.846;2022-11-23T16:41:50;8.53;;;2.73;;
50585;SDS011;36542;51.700;8.846;2022-11-23T16:44:16;6.07;;;3.23;;
50585;SDS011;36542;51.700;8.846;2022-11-23T16:46:42;5.60;;;2.67;;
50585;SDS011;36542;51.700;8.846;2022-11-23T16:49:11;6.40;;;3.10;;
50585;SDS011;36542;51.700;8.846;2022-11-23T16:51:40;9.93;;;3.37;;
50585;SDS011;36542;51.700;8.846;2022-11-23T16:54:07;5.93;;;2.63;;
50585;SDS011;36542;51.700;8.846;2022-11-23T16:56:33;7.43;;;3.03;;
50585;SDS011;36542;51.700;8.846;2022-11-23T16:58:58;10.53;;;5.17;;
50585;SDS011;36542;51.700;8.846;2022-11-23T17:01:25;6.63;;;2.83;;
50585;SDS011;36542;51.700;8.846;2022-11-23T17:03:52;9.17;;;3.40;;
50585;SDS011;36542;51.700;8.846;2022-11-23T17:06:18;5.30;;;2.60;;